createdAt,value
2022-09-06T00:00:31.663Z,12.8
2022-09-06T00:08:53.714Z,12.79
2022-09-06T00:11:01.199Z,12.79
2022-09-06T00:16:18.416Z,12.8
2022-09-06T00:21:37.990Z,12.8
2022-09-06T00:30:11.051Z,12.78
2022-09-06T00:32:16.542Z,12.78
2022-09-06T00:42:55.590Z,12.78
2022-09-06T00:53:33.985Z,12.79
2022-09-06T00:58:52.758Z,12.78
2022-09-06T01:04:11.697Z,12.78
2022-09-06T01:09:40.624Z,12.78
2022-09-06T01:14:50.069Z,12.78
2022-09-06T01:20:20.235Z,12.77
2022-09-06T01:25:38.989Z,12.77
2022-09-06T01:30:46.911Z,12.77
2022-09-06T01:36:05.751Z,12.78
2022-09-06T01:49:07.387Z,12.76
2022-09-06T01:53:11.867Z,12.76
2022-09-06T01:57:22.644Z,12.76
2022-09-06T02:02:41.620Z,12.77
2022-09-06T02:08:00.948Z,12.76
2022-09-06T02:13:20.638Z,12.76
2022-09-06T02:18:51.410Z,12.76
2022-09-06T02:27:24.420Z,12.75
2022-09-06T02:31:41.001Z,12.75
2022-09-06T02:35:45.504Z,12.75
2022-09-06T02:45:15.701Z,12.75
2022-09-06T02:50:35.041Z,12.75
2022-09-06T02:55:53.898Z,12.75
2022-09-06T03:01:23.356Z,12.74
2022-09-06T03:06:32.733Z,12.74
2022-09-06T03:11:51.575Z,12.74
2022-09-06T03:17:10.683Z,12.74
2022-09-06T03:22:30.029Z,12.74
2022-09-06T03:31:03.255Z,12.72
2022-09-06T03:33:08.781Z,12.73
2022-09-06T03:43:46.864Z,12.72
2022-09-06T03:49:06.402Z,12.73
2022-09-06T03:54:25.925Z,12.72
2022-09-06T03:59:56.274Z,12.72
2022-09-06T04:05:04.079Z,12.72
2022-09-06T04:10:22.948Z,12.72
2022-09-06T04:18:56.040Z,12.71
2022-09-06T04:31:49.940Z,12.72
2022-09-06T04:36:58.189Z,12.71
2022-09-06T04:42:17.658Z,12.71
2022-09-06T04:47:46.730Z,12.7
2022-09-06T04:52:56.440Z,12.7
2022-09-06T04:58:15.378Z,12.7
2022-09-06T05:03:34.687Z,12.7
2022-09-06T05:12:07.757Z,12.7
2022-09-06T05:16:24.253Z,12.71
2022-09-06T05:19:32.737Z,12.73
2022-09-06T05:25:03.206Z,12.75
2022-09-06T05:35:41.965Z,12.76
2022-09-06T05:44:04.012Z,12.74
2022-09-06T05:51:40.661Z,12.81
2022-09-06T06:00:01.723Z,12.89
2022-09-06T06:02:07.570Z,13.06
2022-09-06T06:12:44.915Z,13.44
2022-09-06T06:18:04.080Z,13.46
2022-09-06T06:26:37.081Z,13.48
2022-09-06T06:34:01.324Z,13.47
2022-09-06T06:39:20.341Z,13.43
2022-09-06T06:44:51.448Z,13.41
2022-09-06T06:53:24.483Z,13.42
2022-09-06T07:01:45.577Z,13.49
2022-09-06T07:06:11.944Z,13.54
2022-09-06T07:11:26.737Z,13.51
2022-09-06T07:16:34.720Z,13.54
2022-09-06T07:21:54.147Z,13.58
2022-09-06T07:35:45.919Z,13.76
2022-09-06T07:37:51.214Z,14.14
2022-09-06T07:48:29.517Z,13.97
2022-09-06T07:59:07.742Z,14.34
2022-09-06T08:07:40.886Z,14.43
2022-09-06T08:11:57.356Z,14.43
2022-09-06T08:15:05.738Z,14.4
2022-09-06T08:20:24.618Z,14.42
2022-09-06T08:25:43.960Z,14.44
2022-09-06T08:31:03.018Z,14.38
2022-09-06T08:36:22.010Z,14.4
2022-09-06T08:41:41.443Z,14.44
2022-09-06T08:52:20.184Z,14.4
2022-09-06T09:02:58.282Z,14.4
2022-09-06T09:08:17.758Z,14.39
2022-09-06T09:13:36.449Z,14.45
2022-09-06T09:18:55.656Z,14.4
2022-09-06T09:27:28.685Z,14.45
2022-09-06T09:40:12.548Z,14.4
2022-09-06T09:45:31.095Z,14.4
2022-09-06T09:50:50.012Z,14.4
2022-09-06T09:59:23.052Z,14.4
2022-09-06T10:07:10.049Z,14.39
2022-09-06T10:12:07.156Z,14.4
2022-09-06T10:17:25.954Z,14.4
2022-09-06T10:22:44.988Z,14.4
2022-09-06T10:31:18.136Z,14.4
2022-09-06T10:33:23.947Z,14.4
2022-09-06T10:44:02.535Z,14.4
2022-09-06T10:49:21.830Z,14.4
2022-09-06T10:58:17.617Z,14.4
2022-09-06T11:10:44.489Z,14.41
2022-09-06T11:19:17.539Z,14.4
2022-09-06T11:21:19.424Z,14.4
2022-09-06T11:32:17.494Z,14.41
2022-09-06T11:37:15.297Z,14.39
2022-09-06T11:42:34.414Z,14.42
2022-09-06T11:47:53.269Z,14.4
2022-09-06T11:53:12.730Z,14.4
2022-09-06T11:58:31.650Z,14.41
2022-09-06T12:07:04.728Z,14.42
2022-09-06T12:14:28.681Z,14.4
2022-09-06T12:19:47.924Z,14.42
2022-09-06T12:25:06.662Z,14.42
2022-09-06T12:30:25.885Z,14.4
2022-09-06T12:38:58.965Z,14.4
2022-09-06T12:46:22.889Z,14.39
2022-09-06T12:51:41.818Z,14.4
2022-09-06T12:57:00.589Z,14.4
2022-09-06T13:05:33.676Z,14.39
2022-09-06T13:12:57.237Z,14.4
2022-09-06T13:18:16.308Z,14.4
2022-09-06T13:26:49.352Z,14.39
2022-09-06T13:27:17.240Z,14.41
2022-09-06T13:32:36.558Z,14.39
2022-09-06T13:37:55.263Z,14.4
2022-09-06T13:43:14.675Z,14.41
2022-09-06T13:48:33.417Z,14.4
2022-09-06T13:53:52.920Z,14.4
2022-09-06T13:59:11.683Z,14.4
2022-09-06T14:04:31.047Z,14.4
2022-09-06T14:09:50.313Z,14.41
2022-09-06T14:31:07.769Z,14.39
2022-09-06T14:36:26.762Z,14.4
2022-09-06T14:44:59.810Z,14.41
2022-09-06T14:47:05.084Z,14.41
2022-09-06T14:52:24.293Z,14.4
2022-09-06T14:57:43.725Z,14.4
2022-09-06T15:08:22.146Z,14.39
2022-09-06T15:13:41.448Z,14.38
2022-09-06T15:24:20.342Z,14.4
2022-09-06T15:29:38.987Z,14.38
2022-09-06T15:35:00.267Z,14.38
2022-09-06T15:40:27.660Z,14.38
2022-09-06T15:45:35.390Z,14.07
2022-09-06T15:54:08.420Z,13.4
2022-09-06T15:56:14.130Z,13.48
2022-09-06T16:01:33.596Z,13.54
2022-09-06T16:06:52.598Z,13.58
2022-09-06T16:12:11.858Z,13.61
2022-09-06T16:17:31.430Z,13.64
2022-09-06T16:26:04.477Z,13.64
2022-09-06T16:30:21.033Z,13.66
2022-09-06T16:33:29.409Z,13.71
2022-09-06T16:39:00.243Z,14.21
2022-09-06T16:44:06.905Z,14.38
2022-09-06T16:49:37.515Z,14.07
2022-09-06T17:00:05.092Z,13.57
2022-09-06T17:08:38.161Z,13.44
2022-09-06T17:16:03.347Z,13.2
2022-09-06T17:24:36.384Z,13.07
2022-09-06T17:26:40.712Z,12.97
2022-09-06T17:32:00.287Z,12.88
2022-09-06T17:38:34.434Z,12.81
2022-09-06T17:42:38.552Z,12.79
2022-09-06T17:47:57.666Z,12.79
2022-09-06T17:53:16.382Z,12.8
2022-09-06T17:58:35.744Z,12.82
2022-09-06T18:03:55.522Z,12.84
2022-09-06T18:09:14.124Z,12.84
2022-09-06T18:19:53.507Z,12.85
2022-09-06T18:25:12.746Z,12.86
2022-09-06T18:32:11.391Z,12.85
2022-09-06T18:35:51.165Z,12.85
2022-09-06T18:42:49.743Z,12.85
2022-09-06T18:46:28.796Z,12.86
2022-09-06T18:51:57.127Z,12.86
2022-09-06T18:58:22.036Z,12.86
2022-09-06T19:02:27.112Z,12.86
2022-09-06T19:07:45.211Z,12.86
2022-09-06T19:14:09.470Z,12.86
2022-09-06T19:24:52.635Z,12.85
2022-09-06T19:29:04.060Z,12.85
2022-09-06T19:34:23.351Z,12.85
2022-09-06T19:39:42.573Z,12.85
2022-09-06T19:45:01.415Z,12.85
2022-09-06T19:50:21.616Z,12.85
2022-09-06T20:06:30.997Z,12.84
2022-09-06T20:11:39.538Z,12.84
2022-09-06T20:18:38.078Z,12.84
2022-09-06T20:22:18.998Z,12.84
2022-09-06T20:27:41.348Z,12.84
2022-09-06T20:36:10.942Z,12.83
2022-09-06T20:38:16.221Z,12.83
2022-09-06T20:48:55.367Z,12.83
2022-09-06T20:54:14.526Z,12.83
2022-09-06T20:59:33.049Z,12.83
2022-09-06T21:04:52.473Z,12.83
2022-09-06T21:10:10.800Z,12.83
2022-09-06T21:15:37.722Z,12.83
2022-09-06T21:20:49.224Z,12.83
2022-09-06T21:26:08.882Z,12.82
2022-09-06T21:31:37.305Z,12.82
2022-09-06T21:36:46.665Z,12.82
2022-09-06T21:43:20.835Z,12.81
2022-09-06T21:47:25.124Z,12.81
2022-09-06T21:54:23.695Z,12.82
2022-09-06T21:58:40.179Z,12.82
2022-09-06T22:03:30.420Z,12.81
2022-09-06T22:08:50.969Z,12.82
2022-09-06T22:14:01.083Z,12.81
2022-09-06T22:20:35.279Z,12.81
2022-09-06T22:24:39.498Z,12.82
2022-09-06T22:29:58.919Z,12.82
2022-09-06T22:35:17.707Z,12.81
2022-09-06T22:40:36.439Z,12.81
2022-09-06T22:45:56.275Z,12.81
2022-09-06T22:51:15.397Z,12.81
2022-09-06T22:56:34.288Z,12.8
2022-09-06T23:03:08.425Z,12.8
2022-09-06T23:07:12.515Z,12.8
2022-09-06T23:12:31.216Z,12.8
2022-09-06T23:23:10.114Z,12.8
2022-09-06T23:28:29.079Z,12.8
2022-09-06T23:33:48.020Z,12.8
2022-09-06T23:39:06.556Z,12.79
2022-09-06T23:44:26.133Z,12.79
2022-09-06T23:49:45.279Z,12.78
2022-09-06T23:55:04.756Z,12.8
